Time;durP1;ratioP1;P1;durP2;ratioP2;P2;SDS_P1;SDS_P2;PMS_P1;PMS_P2;Temp;Humidity;BMP_temperature;BMP_pressure;BME280_temperature;BME280_humidity;BME280_pressure;Samples;Min_cycle;Max_cycle;Signal;HPM_P1;HPM_P2
2022/11/29 00:00:17;;;;;;;70.30;33.80;;;;;;;-1.96;99.78;99010.15;214038;1312;25429;-73
2022/11/29 00:05:19;;;;;;;60.60;29.90;;;;;;;-1.98;99.91;99004.45;213971;1311;22610;-74
2022/11/29 00:10:21;;;;;;;58.80;29.50;;;;;;;-2.00;99.86;98996.83;213869;1313;22501;-74
2022/11/29 00:15:23;;;;;;;55.70;27.50;;;;;;;-2.00;99.92;99000.41;214080;1311;22503;-74
2022/11/29 00:20:25;;;;;;;58.50;28.30;;;;;;;-2.01;100.00;98997.48;213904;1312;22514;-74
2022/11/29 00:25:27;;;;;;;70.10;33.30;;;;;;;-2.03;99.95;98994.35;214034;1311;24388;-74
2022/11/29 00:30:29;;;;;;;63.20;31.00;;;;;;;-2.06;99.93;98995.19;214113;1312;22494;-74
2022/11/29 00:35:30;;;;;;;69.00;34.40;;;;;;;-2.10;99.95;98991.11;213926;1311;24299;-74
2022/11/29 00:40:32;;;;;;;56.10;29.40;;;;;;;-2.13;99.99;98993.77;214069;1311;26072;-74
2022/11/29 00:45:34;;;;;;;52.80;27.40;;;;;;;-2.15;99.90;98994.46;214124;1311;25579;-74
2022/11/29 00:50:36;;;;;;;66.20;30.50;;;;;;;-2.16;99.98;98988.09;214063;1313;22678;-73
2022/11/29 00:55:38;;;;;;;57.70;26.30;;;;;;;-2.17;100.00;98988.37;213992;1313;25443;-74
2022/11/29 01:00:40;;;;;;;53.10;24.90;;;;;;;-2.13;100.00;98991.79;213871;1312;25458;-73
2022/11/29 01:05:42;;;;;;;52.90;25.90;;;;;;;-2.14;99.99;98993.08;213896;1312;22626;-73
2022/11/29 01:10:44;;;;;;;61.80;27.80;;;;;;;-2.16;99.99;98991.99;214011;1311;26462;-74
2022/11/29 01:15:54;;;;;;;50.20;24.00;;;;;;;-2.12;100.00;98990.88;214001;1311;22622;-75
2022/11/29 01:21:08;;;;;;;49.80;26.70;;;;;;;-2.09;100.00;98988.63;214080;1311;24257;-74
2022/11/29 01:26:13;;;;;;;51.20;25.50;;;;;;;-2.09;100.00;98988.70;214199;1311;22511;-73
2022/11/29 01:31:18;;;;;;;56.70;28.00;;;;;;;-2.07;100.00;98981.15;213925;1310;24346;-73
2022/11/29 01:36:20;;;;;;;45.70;24.10;;;;;;;-2.04;100.00;98979.61;213965;1309;24222;-73
2022/11/29 01:41:25;;;;;;;49.40;25.00;;;;;;;-2.07;99.92;98979.94;214013;1312;22471;-74
2022/11/29 01:46:29;;;;;;;52.00;24.90;;;;;;;-2.12;99.96;98979.15;213992;1312;24395;-74
2022/11/29 01:51:33;;;;;;;50.60;25.60;;;;;;;-2.13;100.00;98973.70;214245;1310;22714;-74
2022/11/29 01:56:36;;;;;;;59.70;27.50;;;;;;;-2.13;100.00;98972.38;214085;1312;22507;-73
2022/11/29 02:01:38;;;;;;;45.10;22.80;;;;;;;-2.17;99.94;98976.89;214339;1311;22480;-74
2022/11/29 02:06:41;;;;;;;56.30;25.80;;;;;;;-2.18;100.00;98979.08;214042;1312;22547;-73
2022/11/29 02:11:57;;;;;;;49.50;25.30;;;;;;;-2.24;99.94;98983.73;214003;1310;22947;-74
2022/11/29 02:17:11;;;;;;;44.80;23.70;;;;;;;-2.31;100.00;98985.67;214051;1312;25454;-74
2022/11/29 02:22:22;;;;;;;46.90;22.60;;;;;;;-2.37;99.95;98986.95;214182;1311;24478;-74
2022/11/29 02:27:42;;;;;;;49.20;24.00;;;;;;;-2.37;99.94;98993.49;214167;1312;22493;-73
2022/11/29 02:33:20;;;;;;;50.00;24.90;;;;;;;-2.38;100.00;98989.73;214081;1307;22649;-74
2022/11/29 02:38:53;;;;;;;54.30;25.70;;;;;;;-2.41;99.92;98992.34;214157;1311;24260;-73
2022/11/29 02:44:04;;;;;;;48.30;23.30;;;;;;;-2.45;99.96;98989.95;213998;1312;23710;-74
2022/11/29 02:49:32;;;;;;;48.90;24.80;;;;;;;-2.47;99.97;98986.16;214257;1309;22539;-74
2022/11/29 02:54:43;;;;;;;48.40;25.70;;;;;;;-2.42;100.00;98997.68;213887;1313;22572;-73
2022/11/29 03:00:06;;;;;;;48.40;25.60;;;;;;;-2.41;100.00;99001.52;214098;1311;22601;-73
2022/11/29 03:05:19;;;;;;;51.30;25.20;;;;;;;-2.46;99.97;99004.38;213979;1312;22555;-73
2022/11/29 03:10:58;;;;;;;50.00;24.70;;;;;;;-2.49;99.97;99004.77;214070;1308;23068;-74
2022/11/29 03:16:34;;;;;;;44.60;22.30;;;;;;;-2.53;99.95;99006.00;214222;1313;23749;-74
2022/11/29 03:22:07;;;;;;;48.20;23.70;;;;;;;-2.57;99.99;99012.44;214209;1313;24363;-74
2022/11/29 03:27:22;;;;;;;49.70;24.50;;;;;;;-2.58;100.00;99013.94;213974;1304;23022;-73
2022/11/29 03:32:33;;;;;;;46.90;21.00;;;;;;;-2.58;100.00;99014.98;214177;1311;22647;-73
2022/11/29 03:37:54;;;;;;;45.30;21.20;;;;;;;-2.60;100.00;99018.54;214010;1312;24422;-73
2022/11/29 03:43:05;;;;;;;49.00;23.90;;;;;;;-2.59;100.00;99018.17;213995;1309;22522;-73
2022/11/29 03:48:23;;;;;;;50.20;23.00;;;;;;;-2.59;100.00;99023.86;214131;1313;22469;-73
2022/11/29 03:53:50;;;;;;;44.80;21.90;;;;;;;-2.59;100.00;99026.65;213977;1311;25435;-73
2022/11/29 03:59:19;;;;;;;43.70;21.60;;;;;;;-2.59;100.00;99033.08;214116;1313;22697;-74
2022/11/29 04:04:48;;;;;;;44.80;21.70;;;;;;;-2.62;100.00;99037.33;213808;1313;22594;-73
2022/11/29 04:10:01;;;;;;;36.90;19.30;;;;;;;-2.69;100.00;99038.23;214093;1310;25223;-74
2022/11/29 04:15:37;;;;;;;41.00;21.20;;;;;;;-2.75;100.00;99040.21;214026;1310;23448;-74
2022/11/29 04:20:58;;;;;;;40.20;21.20;;;;;;;-2.80;100.00;99038.55;214048;1310;22746;-73
2022/11/29 04:26:24;;;;;;;52.60;24.20;;;;;;;-2.83;100.00;99037.27;214082;1310;22511;-74
2022/11/29 04:31:52;;;;;;;51.20;23.40;;;;;;;-2.86;100.00;99038.70;214018;1310;22472;-74
2022/11/29 04:37:04;;;;;;;47.20;22.50;;;;;;;-2.89;100.00;99042.73;214007;1310;25558;-73
2022/11/29 04:42:24;;;;;;;51.40;23.90;;;;;;;-2.92;100.00;99047.40;213845;1310;22952;-73
2022/11/29 04:48:06;;;;;;;65.60;29.50;;;;;;;-2.94;100.00;99054.24;214104;1310;24266;-74
2022/11/29 04:53:29;;;;;;;61.10;29.70;;;;;;;-2.95;100.00;99058.05;213946;1310;26684;-73
2022/11/29 04:58:45;;;;;;;64.00;27.60;;;;;;;-2.95;100.00;99060.93;214177;1310;22690;-74
2022/11/29 05:04:00;;;;;;;73.00;36.00;;;;;;;-2.98;100.00;99062.45;214085;1310;22522;-74
2022/11/29 05:09:29;;;;;;;69.10;32.20;;;;;;;-2.98;100.00;99072.13;213890;1310;22567;-74
2022/11/29 05:14:59;;;;;;;78.70;37.60;;;;;;;-2.99;100.00;99080.52;213958;1310;23163;-73
2022/11/29 05:20:40;;;;;;;67.50;34.10;;;;;;;-3.00;100.00;99083.89;213911;1310;22966;-74
2022/11/29 05:25:53;;;;;;;80.70;35.50;;;;;;;-2.98;100.00;99093.39;213968;1310;22616;-73
2022/11/29 05:31:37;;;;;;;77.30;34.30;;;;;;;-3.00;100.00;99091.92;214012;1310;25516;-74
2022/11/29 05:36:54;;;;;;;70.20;33.90;;;;;;;-3.00;100.00;99088.69;214152;1310;22967;-72
2022/11/29 05:42:08;;;;;;;69.90;33.60;;;;;;;-2.99;100.00;99095.61;214194;1310;22945;-73
2022/11/29 05:47:17;;;;;;;62.30;29.80;;;;;;;-3.01;100.00;99097.30;213889;1310;22821;-74
2022/11/29 05:52:47;;;;;;;60.00;30.00;;;;;;;-3.03;100.00;99104.33;213857;1310;22518;-74
2022/11/29 05:58:34;;;;;;;54.20;26.60;;;;;;;-3.02;100.00;99108.56;214228;1310;23784;-74
2022/11/29 06:03:43;;;;;;;60.10;28.00;;;;;;;-2.97;100.00;99109.36;213816;1310;24295;-73
2022/11/29 06:09:26;;;;;;;71.40;31.70;;;;;;;-2.94;100.00;99119.27;213986;1310;25256;-74
2022/11/29 06:14:27;;;;;;;70.40;35.10;;;;;;;-2.95;100.00;99121.19;213967;1310;25572;-73
2022/11/29 06:19:36;;;;;;;83.30;37.90;;;;;;;-2.96;100.00;99124.09;214063;1310;24471;-74
2022/11/29 06:24:44;;;;;;;75.80;35.60;;;;;;;-2.99;100.00;99123.86;214045;1310;22534;-73
2022/11/29 06:29:56;;;;;;;73.20;32.30;;;;;;;-3.03;100.00;99118.36;213964;1310;22551;-74
2022/11/29 06:35:19;;;;;;;65.50;28.90;;;;;;;-3.04;100.00;99117.86;214061;1310;22554;-74
2022/11/29 06:40:22;;;;;;;69.60;31.50;;;;;;;-3.01;100.00;99119.17;214235;1287;25693;-72
2022/11/29 06:45:24;;;;;;;71.90;32.20;;;;;;;-2.96;100.00;99121.50;214295;1281;22473;-73
2022/11/29 06:50:55;;;;;;;68.20;30.70;;;;;;;-2.88;100.00;99129.05;214812;1281;22643;-73
2022/11/29 06:56:07;;;;;;;58.30;27.50;;;;;;;-2.80;100.00;99133.34;214716;1284;22495;-73
2022/11/29 07:01:24;;;;;;;66.40;30.60;;;;;;;-2.74;100.00;99136.05;214564;1285;22497;-73
2022/11/29 07:06:27;;;;;;;61.40;29.30;;;;;;;-2.67;100.00;99136.98;214732;1285;25171;-71
2022/11/29 07:11:29;;;;;;;62.80;28.60;;;;;;;-2.63;100.00;99140.10;214728;1286;22653;-72
2022/11/29 07:17:19;;;;;;;60.00;30.10;;;;;;;-2.55;100.00;99144.19;214689;1284;23089;-73
2022/11/29 07:22:25;;;;;;;64.60;29.30;;;;;;;-2.42;100.00;99149.86;214191;1284;25400;-73
2022/11/29 07:28:05;;;;;;;57.30;29.00;;;;;;;-2.30;100.00;99151.94;214711;1284;22487;-72
2022/11/29 07:33:36;;;;;;;57.80;30.10;;;;;;;-2.20;100.00;99159.93;214696;1281;25254;-71
2022/11/29 07:39:10;;;;;;;66.30;31.90;;;;;;;-2.09;100.00;99160.25;214814;1284;25349;-72
2022/11/29 07:44:20;;;;;;;66.70;30.80;;;;;;;-1.61;100.00;99165.86;214559;1281;22503;-72
2022/11/29 07:49:22;;;;;;;70.30;31.70;;;;;;;-1.30;100.00;99165.05;214769;1284;22468;-73
2022/11/29 07:54:24;;;;;;;66.00;31.90;;;;;;;-1.25;100.00;99167.65;214597;1281;24323;-72
2022/11/29 07:59:26;;;;;;;65.60;31.50;;;;;;;-1.18;100.00;99172.05;214316;1288;22782;-73
2022/11/29 08:04:28;;;;;;;67.40;30.80;;;;;;;-1.09;100.00;99171.93;214526;1288;22651;-74
2022/11/29 08:09:30;;;;;;;67.10;30.90;;;;;;;-0.95;100.00;99174.84;214372;1287;22528;-74
2022/11/29 08:14:32;;;;;;;76.20;35.60;;;;;;;-0.85;99.92;99182.37;214493;1281;25271;-73
2022/11/29 08:19:34;;;;;;;63.90;32.00;;;;;;;-0.66;100.00;99180.27;215184;1284;22632;-74
2022/11/29 08:24:36;;;;;;;71.50;32.80;;;;;;;-0.14;100.00;99172.98;214446;1281;25348;-73
2022/11/29 08:29:38;;;;;;;69.10;33.90;;;;;;;0.25;100.00;99172.80;214675;1284;22480;-74
2022/11/29 08:34:39;;;;;;;64.90;32.00;;;;;;;0.94;99.96;99171.54;214628;1281;22953;-74
2022/11/29 08:39:42;;;;;;;55.80;29.80;;;;;;;0.95;98.82;99178.23;214347;1286;26114;-74
2022/11/29 08:44:44;;;;;;;55.70;28.30;;;;;;;0.83;98.02;99185.39;214535;1284;23195;-70
2022/11/29 08:50:01;;;;;;;64.10;31.90;;;;;;;0.73;97.54;99185.17;214545;1284;23188;-71
2022/11/29 08:55:03;;;;;;;57.10;27.70;;;;;;;0.63;97.29;99189.38;214511;1284;25350;-71
2022/11/29 09:00:07;;;;;;;62.80;30.80;;;;;;;0.51;96.93;99191.45;214297;1286;22661;-70
2022/11/29 09:05:10;;;;;;;57.30;28.40;;;;;;;0.45;97.13;99190.70;214597;1289;22489;-72
2022/11/29 09:10:12;;;;;;;54.60;29.80;;;;;;;0.43;97.14;99191.58;214611;1281;22906;-71
2022/11/29 09:15:13;;;;;;;55.20;25.80;;;;;;;0.47;97.08;99185.89;214790;1286;22528;-72
2022/11/29 09:20:15;;;;;;;55.30;27.30;;;;;;;0.53;97.20;99189.32;215429;1279;22514;-66
2022/11/29 09:25:17;;;;;;;53.50;26.30;;;;;;;0.66;97.34;99191.79;214513;1287;23483;-71
2022/11/29 09:30:19;;;;;;;56.30;30.20;;;;;;;0.75;96.99;99187.60;214550;1288;22589;-69
2022/11/29 09:35:24;;;;;;;56.90;29.70;;;;;;;0.82;96.92;99189.94;214611;1281;22668;-69
2022/11/29 09:40:33;;;;;;;55.30;27.70;;;;;;;0.93;97.12;99189.98;214770;1286;22466;-68
2022/11/29 09:45:42;;;;;;;58.40;28.10;;;;;;;1.09;97.07;99186.70;214488;1288;25357;-71
2022/11/29 09:51:00;;;;;;;52.80;28.20;;;;;;;1.13;96.27;99189.04;214661;1285;25241;-70
2022/11/29 09:56:37;;;;;;;61.20;28.80;;;;;;;1.15;96.12;99190.13;214556;1286;22627;-70
2022/11/29 10:01:47;;;;;;;49.10;26.30;;;;;;;1.26;96.31;99188.61;214452;1284;24312;-69
2022/11/29 10:07:18;;;;;;;55.40;28.70;;;;;;;1.40;96.31;99192.42;214373;1287;22659;-69
2022/11/29 10:12:43;;;;;;;45.90;25.50;;;;;;;1.51;96.08;99193.45;214221;1288;23853;-69
2022/11/29 10:17:57;;;;;;;53.40;28.00;;;;;;;1.62;95.96;99189.27;214995;1295;23758;-70
2022/11/29 10:23:20;;;;;;;51.70;25.90;;;;;;;1.71;95.80;99188.01;215014;1284;24244;-69
2022/11/29 10:28:31;;;;;;;49.80;25.10;;;;;;;1.80;95.54;99188.67;214581;1310;25369;-70
2022/11/29 10:33:39;;;;;;;49.70;25.90;;;;;;;2.00;95.81;99189.14;214526;1302;24268;-70
2022/11/29 10:38:43;;;;;;;46.20;23.90;;;;;;;2.23;95.72;99181.29;214400;1284;86704;-70
2022/11/29 10:43:46;;;;;;;51.00;25.60;;;;;;;2.39;95.37;99176.36;214556;1287;24090;-70
2022/11/29 10:48:48;;;;;;;60.60;29.00;;;;;;;2.55;95.38;99174.72;214459;1281;22517;-69
2022/11/29 10:53:53;;;;;;;53.10;28.00;;;;;;;2.63;94.83;99176.84;214601;1304;22495;-69
2022/11/29 10:59:04;;;;;;;55.30;27.10;;;;;;;2.69;94.79;99180.16;214517;1297;22469;-70
2022/11/29 11:04:13;;;;;;;43.30;21.60;;;;;;;2.73;94.69;99183.12;214610;1305;22476;-72
2022/11/29 11:09:33;;;;;;;49.70;24.60;;;;;;;2.74;94.37;99181.96;214490;1289;23622;-70
2022/11/29 11:14:36;;;;;;;;;;;;;;;2.74;94.58;99178.34;214874;1285;22667;-71
2022/11/29 11:19:38;;;;;;;51.80;27.30;;;;;;;2.82;94.57;99184.34;215322;1288;23913;-71
2022/11/29 11:24:43;;;;;;;47.80;25.80;;;;;;;2.87;94.35;99185.79;214599;1286;24366;-71
2022/11/29 11:29:45;;;;;;;55.70;25.90;;;;;;;2.95;94.21;99183.89;214568;1310;22496;-70
2022/11/29 11:35:15;;;;;;;50.00;25.30;;;;;;;2.87;93.66;99189.82;214552;1302;23170;-71
2022/11/29 11:40:30;;;;;;;51.90;27.90;;;;;;;2.86;93.88;99188.98;214744;1297;25368;-70
2022/11/29 11:45:35;;;;;;;50.90;24.00;;;;;;;2.86;93.52;99189.42;214467;1310;23237;-69
2022/11/29 11:50:44;;;;;;;48.50;26.00;;;;;;;2.76;92.96;99188.98;214327;1281;22562;-69
2022/11/29 11:55:58;;;;;;;57.80;28.90;;;;;;;2.63;92.94;99191.61;214623;1287;26401;-68
2022/11/29 12:01:23;;;;;;;46.20;25.50;;;;;;;2.54;92.94;99192.22;214471;1287;22495;-71
2022/11/29 12:06:53;;;;;;;41.20;22.00;;;;;;;2.45;92.92;99193.77;214559;1281;24333;-70
2022/11/29 12:11:59;;;;;;;53.10;25.10;;;;;;;2.43;92.86;99194.57;214596;1285;23008;-71
2022/11/29 12:17:08;;;;;;;50.60;25.80;;;;;;;2.37;92.89;99195.01;214936;1281;23279;-70
2022/11/29 12:22:17;;;;;;;43.00;21.70;;;;;;;2.41;93.11;99198.87;214918;1281;25490;-70
2022/11/29 12:27:19;;;;;;;45.80;23.90;;;;;;;2.45;92.92;99202.98;214455;1288;25296;-72
2022/11/29 12:32:51;;;;;;;46.70;21.80;;;;;;;2.37;92.61;99205.42;214646;1281;23267;-70
2022/11/29 12:38:00;;;;;;;44.40;22.40;;;;;;;2.23;92.47;99209.11;214853;1310;23215;-69
2022/11/29 12:43:33;;;;;;;45.40;23.40;;;;;;;2.13;92.57;99204.64;214679;1288;22505;-69
2022/11/29 12:48:56;;;;;;;41.90;22.40;;;;;;;2.18;92.86;99205.59;214462;1297;22482;-70
2022/11/29 12:54:28;;;;;;;46.30;23.90;;;;;;;2.26;92.86;99206.44;214700;1305;23055;-69
2022/11/29 12:59:35;;;;;;;48.10;23.40;;;;;;;2.37;93.16;99209.58;214665;1296;23197;-70
2022/11/29 13:05:16;;;;;;;35.30;18.10;;;;;;;2.48;92.98;99216.66;214819;1278;22530;-71
2022/11/29 13:10:37;;;;;;;;;;;;;;;2.51;92.66;99220.55;214969;1286;24282;-69
2022/11/29 13:15:52;;;;;;;36.10;19.20;;;;;;;2.43;92.37;99217.59;214963;1284;24900;-70
2022/11/29 13:21:20;;;;;;;44.60;23.40;;;;;;;2.40;92.27;99213.52;215267;1281;25382;-69
2022/11/29 13:26:25;;;;;;;37.70;20.20;;;;;;;2.44;92.44;99220.36;214813;1286;22549;-72
2022/11/29 13:31:27;;;;;;;40.50;20.30;;;;;;;2.44;92.24;99217.59;215164;1287;22520;-70
2022/11/29 13:36:54;;;;;;;44.60;23.60;;;;;;;2.43;92.22;99216.27;214369;1285;24335;-70
2022/11/29 13:42:21;;;;;;;41.70;21.90;;;;;;;2.40;92.05;99219.20;214593;1283;22477;-70
2022/11/29 13:47:23;;;;;;;40.50;19.70;;;;;;;2.37;91.96;99222.10;214622;1281;22510;-71
2022/11/29 13:52:46;;;;;;;38.10;20.80;;;;;;;2.33;91.88;99223.98;214574;1281;22483;-70
2022/11/29 13:58:05;;;;;;;46.30;23.50;;;;;;;2.20;91.51;99228.71;214498;1284;24422;-72
2022/11/29 14:03:22;;;;;;;43.00;22.30;;;;;;;2.09;91.73;99231.89;214616;1287;22476;-71
2022/11/29 14:08:31;;;;;;;36.60;19.50;;;;;;;2.05;91.75;99235.11;214816;1281;22525;-73
2022/11/29 14:13:59;;;;;;;43.50;21.40;;;;;;;1.92;91.75;99238.73;214560;1278;22517;-70
2022/11/29 14:19:21;;;;;;;42.60;22.50;;;;;;;1.82;91.79;99247.52;215331;1288;22555;-70
2022/11/29 14:24:34;;;;;;;45.60;23.20;;;;;;;1.72;91.64;99252.45;214785;1289;22485;-68
2022/11/29 14:29:54;;;;;;;41.60;20.20;;;;;;;1.60;91.84;99246.95;214803;1281;22602;-70
2022/11/29 14:35:11;;;;;;;45.40;22.50;;;;;;;1.52;91.99;99250.19;214723;1281;24284;-70
2022/11/29 14:40:40;;;;;;;47.40;23.80;;;;;;;1.40;91.85;99254.80;214826;1288;22970;-72
2022/11/29 14:45:42;;;;;;;26.60;13.40;;;;;;;1.27;91.99;99256.17;214680;1288;22478;-71
2022/11/29 14:50:44;;;;;;;45.30;22.50;;;;;;;1.11;91.83;99258.39;214465;1281;25468;-70
2022/11/29 14:55:47;;;;;;;45.50;21.80;;;;;;;0.98;91.85;99261.26;214685;1287;23159;-71
2022/11/29 15:00:48;;;;;;;39.80;20.90;;;;;;;0.83;91.98;99267.69;214569;1281;25385;-69
2022/11/29 15:06:08;;;;;;;48.30;23.40;;;;;;;0.70;92.11;99272.88;214250;1295;22483;-71
2022/11/29 15:11:21;;;;;;;45.40;21.70;;;;;;;0.60;92.35;99272.44;214193;1310;22482;-69
2022/11/29 15:16:39;;;;;;;47.10;22.40;;;;;;;0.51;92.67;99278.60;214073;1310;25340;-68
2022/11/29 15:22:06;;;;;;;46.20;21.50;;;;;;;0.43;93.03;99280.53;214240;1310;22477;-70
2022/11/29 15:27:11;;;;;;;50.00;21.30;;;;;;;0.33;92.69;99287.88;214078;1310;24288;-70
2022/11/29 15:32:24;;;;;;;41.70;20.70;;;;;;;0.23;92.93;99286.09;214084;1310;25221;-69
2022/11/29 15:37:29;;;;;;;56.90;24.90;;;;;;;0.14;92.93;99289.04;214613;1310;22618;-69
2022/11/29 15:42:41;;;;;;;61.80;25.30;;;;;;;0.05;93.10;99293.64;214223;1288;22567;-71
2022/11/29 15:47:43;;;;;;;77.80;33.10;;;;;;;-0.01;93.36;99295.44;214066;1310;22600;-70
2022/11/29 15:52:44;;;;;;;46.30;21.90;;;;;;;-0.11;93.48;99293.71;214042;1310;24384;-69
2022/11/29 15:57:51;;;;;;;49.50;22.30;;;;;;;-0.22;93.62;99295.35;214030;1310;22471;-70
2022/11/29 16:02:58;;;;;;;46.00;21.50;;;;;;;-0.30;93.79;99296.05;214084;1310;22491;-73
2022/11/29 16:08:05;;;;;;;50.50;22.90;;;;;;;-0.33;93.92;99302.66;214258;1309;22481;-69
2022/11/29 16:13:27;;;;;;;49.40;23.10;;;;;;;-0.40;93.88;99305.77;214208;1305;23832;-69
2022/11/29 16:18:28;;;;;;;44.80;21.60;;;;;;;-0.49;94.13;99312.83;214151;1310;22566;-70
2022/11/29 16:23:41;;;;;;;49.70;20.80;;;;;;;-0.58;94.14;99316.79;213880;1286;22783;-72
2022/11/29 16:28:46;;;;;;;43.50;20.70;;;;;;;-0.72;94.12;99320.02;213800;1310;23246;-71
2022/11/29 16:33:51;;;;;;;47.50;23.20;;;;;;;-0.83;94.45;99318.07;214085;1310;24087;-72
2022/11/29 16:39:14;;;;;;;50.10;21.30;;;;;;;-0.94;94.39;99323.59;214228;1304;22718;-71
2022/11/29 16:44:39;;;;;;;45.10;20.40;;;;;;;-1.08;94.23;99327.33;214056;1310;22605;-70
2022/11/29 16:49:41;;;;;;;54.40;23.00;;;;;;;-1.21;94.58;99324.78;214108;1310;22476;-69
2022/11/29 16:54:43;;;;;;;44.00;18.60;;;;;;;-1.33;94.78;99327.00;214074;1310;25558;-70
2022/11/29 16:59:46;;;;;;;57.50;24.50;;;;;;;-1.44;94.95;99326.23;214143;1310;22815;-71
2022/11/29 17:04:49;;;;;;;51.00;21.30;;;;;;;-1.53;95.15;99330.33;213857;1310;24320;-72
2022/11/29 17:09:52;;;;;;;47.70;20.80;;;;;;;-1.59;95.33;99329.17;214186;1313;22527;-70
2022/11/29 17:14:54;;;;;;;46.60;19.90;;;;;;;-1.61;96.04;99331.70;214086;1313;23782;-71
2022/11/29 17:19:56;;;;;;;60.70;24.20;;;;;;;-1.64;95.80;99330.23;213951;1313;25403;-70
2022/11/29 17:24:57;;;;;;;54.20;22.10;;;;;;;-1.72;95.96;99336.34;214046;1300;24850;-69
2022/11/29 17:29:59;;;;;;;59.50;22.60;;;;;;;-1.79;96.25;99341.52;214068;1310;25444;-70
2022/11/29 17:35:01;;;;;;;56.30;23.20;;;;;;;-1.80;96.38;99341.10;214001;1313;22635;-70
2022/11/29 17:40:04;;;;;;;47.70;20.70;;;;;;;-1.80;96.49;99341.22;214152;1313;25446;-70
2022/11/29 17:45:06;;;;;;;46.30;18.60;;;;;;;-1.78;96.56;99340.91;213906;1307;22476;-71
2022/11/29 17:50:09;;;;;;;48.80;20.00;;;;;;;-1.75;96.72;99342.22;213949;1313;24270;-71
2022/11/29 17:55:11;;;;;;;42.90;18.20;;;;;;;-1.77;96.53;99344.59;214237;1312;22470;-70
2022/11/29 18:00:14;;;;;;;52.00;21.00;;;;;;;-1.77;96.74;99346.91;214179;1312;25291;-70
2022/11/29 18:05:16;;;;;;;44.60;19.40;;;;;;;-1.78;96.85;99351.45;214293;1312;22615;-70
2022/11/29 18:10:18;;;;;;;49.00;19.40;;;;;;;-1.82;97.17;99352.92;214088;1312;22483;-71
2022/11/29 18:15:20;;;;;;;43.90;19.80;;;;;;;-1.82;97.07;99349.25;214144;1311;24353;-69
2022/11/29 18:20:22;;;;;;;46.70;18.70;;;;;;;-1.80;97.24;99350.80;214042;1313;24297;-70
2022/11/29 18:25:24;;;;;;;51.90;19.30;;;;;;;-1.81;97.19;99360.96;214038;1312;23767;-70
2022/11/29 18:30:41;;;;;;;41.20;17.30;;;;;;;-1.74;97.68;99367.01;214090;1312;24279;-70
2022/11/29 18:35:43;;;;;;;52.40;19.80;;;;;;;-1.64;97.71;99380.06;214301;1311;22939;-71
2022/11/29 18:40:45;;;;;;;48.60;21.50;;;;;;;-1.57;97.39;99380.15;214072;1312;22457;-71
2022/11/29 18:45:47;;;;;;;48.20;20.70;;;;;;;-1.58;97.35;99374.20;213987;1313;25179;-70
2022/11/29 18:50:49;;;;;;;44.20;17.70;;;;;;;-1.51;97.65;99377.52;214123;1312;22614;-69
2022/11/29 18:56:06;;;;;;;45.70;18.50;;;;;;;-1.50;97.66;99382.41;214037;1313;22514;-71
2022/11/29 19:01:11;;;;;;;49.50;19.60;;;;;;;-1.45;97.52;99384.54;214174;1312;25618;-72
2022/11/29 19:06:16;;;;;;;45.10;18.80;;;;;;;-1.40;97.72;99379.75;214113;1312;22484;-71
2022/11/29 19:11:20;;;;;;;49.30;18.50;;;;;;;-1.35;97.83;99382.57;214020;1313;28833;-71
2022/11/29 19:16:24;;;;;;;36.40;14.50;;;;;;;-1.29;97.77;99384.48;214189;1312;25445;-70
2022/11/29 19:21:30;;;;;;;41.90;19.70;;;;;;;-1.32;97.61;99386.73;214041;1310;24362;-70
2022/11/29 19:26:33;;;;;;;45.60;18.30;;;;;;;-1.32;97.64;99394.31;214148;1310;22478;-69
2022/11/29 19:31:35;;;;;;;54.90;21.10;;;;;;;-1.25;97.77;99397.41;214140;1313;25507;-70
2022/11/29 19:36:41;;;;;;;46.70;20.10;;;;;;;-1.18;97.83;99396.07;214116;1312;25356;-70
2022/11/29 19:41:46;;;;;;;45.80;19.30;;;;;;;-1.12;98.09;99399.20;213961;1313;22510;-69
2022/11/29 19:46:48;;;;;;;46.10;18.50;;;;;;;-1.10;97.67;99401.30;213963;1313;25543;-69
2022/11/29 19:51:50;;;;;;;42.60;17.10;;;;;;;-1.11;97.67;99406.77;213805;1312;22471;-72
2022/11/29 19:56:54;;;;;;;51.60;22.40;;;;;;;-1.11;97.73;99410.41;214009;1310;22470;-70
2022/11/29 20:01:56;;;;;;;47.90;18.70;;;;;;;-1.13;97.66;99419.95;214068;1312;25503;-70
2022/11/29 20:07:01;;;;;;;45.00;17.90;;;;;;;-1.14;97.55;99422.05;214056;1312;23900;-70
2022/11/29 20:12:03;;;;;;;48.40;18.40;;;;;;;-1.16;97.64;99427.58;214156;1311;26739;-70
2022/11/29 20:17:05;;;;;;;51.90;20.40;;;;;;;-1.14;97.99;99430.75;214150;1312;25468;-71
2022/11/29 20:22:07;;;;;;;51.70;20.20;;;;;;;-1.06;98.10;99431.23;214106;1311;22526;-71
2022/11/29 20:27:08;;;;;;;47.30;20.10;;;;;;;-1.01;98.18;99430.06;214149;1313;22737;-70
2022/11/29 20:32:10;;;;;;;42.00;17.20;;;;;;;-0.97;98.28;99432.50;213979;1310;22683;-71
2022/11/29 20:37:21;;;;;;;40.90;17.40;;;;;;;-0.93;98.07;99434.55;214174;1302;24728;-70
2022/11/29 20:42:50;;;;;;;46.20;18.70;;;;;;;-0.96;97.83;99434.45;213780;1312;23173;-70
2022/11/29 20:48:01;;;;;;;44.30;18.60;;;;;;;-0.96;98.07;99432.72;214053;1313;22602;-70
2022/11/29 20:53:40;;;;;;;42.00;18.20;;;;;;;-0.99;98.02;99427.17;214150;1311;22554;-70
2022/11/29 20:58:42;;;;;;;49.00;18.20;;;;;;;-1.00;98.07;99427.77;214068;1312;24365;-70
2022/11/29 21:03:44;;;;;;;45.40;17.40;;;;;;;-1.02;97.98;99425.91;213867;1313;22486;-70
2022/11/29 21:08:46;;;;;;;48.70;18.20;;;;;;;-1.02;98.25;99429.79;213958;1311;26592;-71
2022/11/29 21:13:48;;;;;;;42.80;16.90;;;;;;;-1.02;98.34;99430.48;214229;1313;22648;-71
2022/11/29 21:18:53;;;;;;;42.80;15.00;;;;;;;-0.98;98.54;99427.77;214177;1313;22501;-71
2022/11/29 21:23:58;;;;;;;58.20;21.20;;;;;;;-0.97;98.58;99436.13;214085;1313;22612;-70
2022/11/29 21:29:29;;;;;;;46.10;18.30;;;;;;;-0.90;98.76;99437.04;214075;1304;23127;-72
2022/11/29 21:34:32;;;;;;;48.70;17.60;;;;;;;-0.83;98.70;99440.93;214032;1310;22521;-70
2022/11/29 21:39:34;;;;;;;45.50;17.00;;;;;;;-0.87;98.48;99436.15;213935;1312;22553;-70
2022/11/29 21:44:36;;;;;;;47.10;17.40;;;;;;;-0.91;98.54;99441.11;214063;1312;22480;-70
2022/11/29 21:49:38;;;;;;;47.40;17.70;;;;;;;-0.91;98.79;99446.73;213991;1309;22497;-70
2022/11/29 21:54:40;;;;;;;48.30;17.20;;;;;;;-0.88;98.71;99448.09;214109;1313;22614;-71
2022/11/29 21:59:42;;;;;;;47.50;18.20;;;;;;;-0.86;98.83;99444.48;214074;1306;22531;-70
2022/11/29 22:04:44;;;;;;;45.40;17.70;;;;;;;-0.84;99.04;99450.73;213929;1312;24314;-70
2022/11/29 22:09:52;;;;;;;46.50;17.50;;;;;;;-0.83;99.21;99446.08;214194;1313;24297;-72
2022/11/29 22:15:00;;;;;;;43.00;16.80;;;;;;;-0.79;99.12;99445.00;214043;1310;22546;-69
2022/11/29 22:20:03;;;;;;;38.10;14.70;;;;;;;-0.77;99.25;99447.84;213812;1313;22547;-68
2022/11/29 22:25:05;;;;;;;43.60;15.80;;;;;;;-0.78;98.98;99447.31;214082;1312;23401;-71
2022/11/29 22:30:07;;;;;;;45.40;17.50;;;;;;;-0.80;98.80;99447.06;214108;1313;22481;-71
2022/11/29 22:35:09;;;;;;;47.90;16.60;;;;;;;-0.86;98.86;99445.63;214169;1312;26572;-70
2022/11/29 22:40:11;;;;;;;43.20;14.00;;;;;;;-0.86;99.08;99444.25;214087;1311;112665;-70
2022/11/29 22:45:13;;;;;;;45.20;15.80;;;;;;;-0.82;99.44;99433.98;214016;1312;22979;-70
2022/11/29 22:50:15;;;;;;;38.00;14.70;;;;;;;-0.77;99.42;99435.94;214096;1313;25468;-69
2022/11/29 22:55:17;;;;;;;40.80;16.10;;;;;;;-0.76;99.59;99445.81;214046;1312;22470;-71
2022/11/29 23:00:19;;;;;;;36.60;14.20;;;;;;;-0.79;99.54;99444.72;214047;1312;22651;-72
2022/11/29 23:05:21;;;;;;;36.00;13.60;;;;;;;-0.78;99.70;99448.29;214158;1313;22504;-71
2022/11/29 23:10:23;;;;;;;35.70;13.60;;;;;;;-0.79;99.55;99445.27;213967;1312;22477;-70
2022/11/29 23:15:24;;;;;;;38.30;14.50;;;;;;;-0.83;99.40;99445.92;214057;1310;25339;-71
2022/11/29 23:20:26;;;;;;;36.90;14.60;;;;;;;-0.83;99.76;99442.64;214087;1310;25321;-70
2022/11/29 23:25:28;;;;;;;37.70;13.80;;;;;;;-0.82;99.72;99435.33;214154;1310;26374;-71
2022/11/29 23:30:31;;;;;;;38.90;16.30;;;;;;;-0.84;99.58;99441.88;214014;1311;24257;-71